createdAt,value
2023-01-17T00:01:34.227Z,97702.56
2023-01-17T00:04:19.381Z,97699.28
2023-01-17T00:07:04.532Z,97695.56
2023-01-17T00:09:49.723Z,97688.03
2023-01-17T00:12:16.236Z,97689.00
2023-01-17T00:14:42.628Z,97685.44
2023-01-17T00:17:09.030Z,97683.47
2023-01-17T00:19:54.244Z,97683.97
2023-01-17T00:22:44.806Z,97675.66
2023-01-17T00:25:32.026Z,97675.34
2023-01-17T00:27:58.506Z,97680.88
2023-01-17T00:30:25.255Z,97670.47
2023-01-17T00:32:51.670Z,97670.47
2023-01-17T00:35:18.114Z,97671.78
2023-01-17T00:37:44.471Z,97664.41
2023-01-17T00:40:11.635Z,97662.81
2023-01-17T00:42:37.982Z,97670.13
2023-01-17T00:45:23.871Z,97671.13
2023-01-17T00:48:08.959Z,97668.31
2023-01-17T00:50:55.959Z,97657.72
2023-01-17T00:53:40.907Z,97663.13
2023-01-17T00:56:26.076Z,97665.88
2023-01-17T00:59:12.988Z,97663.41
2023-01-17T01:01:58.408Z,97664.41
2023-01-17T01:04:43.730Z,97664.72
2023-01-17T01:07:28.936Z,97661.97
2023-01-17T01:10:14.027Z,97660.00
2023-01-17T01:12:59.113Z,97648.63
2023-01-17T01:15:44.012Z,97663.13
2023-01-17T01:18:31.083Z,97657.72
2023-01-17T01:21:20.687Z,97659.69
2023-01-17T01:24:05.637Z,97656.25
2023-01-17T01:26:50.646Z,97647.47
2023-01-17T01:29:35.887Z,97649.56
2023-01-17T01:32:20.980Z,97649.41
2023-01-17T01:34:47.406Z,97647.81
2023-01-17T01:37:13.825Z,97648.78
2023-01-17T01:39:40.226Z,97643.06
2023-01-17T01:42:14.530Z,97638.03
2023-01-17T01:44:50.180Z,97640.47
2023-01-17T01:47:33.382Z,97634.59
2023-01-17T01:50:03.317Z,97635.41
2023-01-17T01:52:33.036Z,97635.06
2023-01-17T01:55:04.173Z,97634.09
2023-01-17T01:57:34.144Z,97629.06
2023-01-17T02:00:24.834Z,97631.50
2023-01-17T02:02:53.756Z,97625.47
2023-01-17T02:05:23.607Z,97633.47
2023-01-17T02:07:54.883Z,97626.28
2023-01-17T02:10:21.514Z,97625.66
2023-01-17T02:12:48.804Z,97622.69
2023-01-17T02:15:15.365Z,97617.81
2023-01-17T02:17:59.583Z,97623.03
2023-01-17T02:20:46.275Z,97625.63
2023-01-17T02:23:23.898Z,97622.69
2023-01-17T02:26:26.014Z,97623.50
2023-01-17T02:29:31.866Z,97615.69
2023-01-17T02:32:04.960Z,97618.81
2023-01-17T02:34:46.609Z,97620.41
2023-01-17T02:37:19.343Z,97615.53
2023-01-17T02:40:00.286Z,97618.78
2023-01-17T02:42:34.120Z,97611.94
2023-01-17T02:45:02.103Z,97619.59
2023-01-17T02:47:30.607Z,97615.38
2023-01-17T02:50:12.462Z,97625.63
2023-01-17T02:53:10.834Z,97620.59
2023-01-17T03:00:17.556Z,97625.97
2023-01-17T03:03:06.785Z,97614.88
2023-01-17T03:05:54.102Z,97623.84
2023-01-17T03:08:21.104Z,97623.81
2023-01-17T03:10:47.532Z,97624.94
2023-01-17T03:13:14.377Z,97620.25
2023-01-17T03:15:40.982Z,97614.50
2023-01-17T03:18:13.408Z,97626.59
2023-01-17T03:20:39.975Z,97619.72
2023-01-17T03:23:06.366Z,97618.09
2023-01-17T03:25:32.744Z,97621.84
2023-01-17T03:27:59.248Z,97621.84
2023-01-17T03:30:25.955Z,97625.13
2023-01-17T03:32:52.359Z,97626.88
2023-01-17T03:35:18.761Z,97619.56
2023-01-17T03:37:45.151Z,97621.53
2023-01-17T03:40:11.780Z,97619.88
2023-01-17T03:42:38.170Z,97623.78
2023-01-17T03:45:04.922Z,97626.06
2023-01-17T03:47:31.306Z,97624.94
2023-01-17T03:49:57.698Z,97624.59
2023-01-17T03:52:24.105Z,97626.06
2023-01-17T03:54:50.509Z,97640.91
2023-01-17T03:57:16.905Z,97629.16
2023-01-17T03:59:43.298Z,97635.34
2023-01-17T04:02:09.819Z,97631.13
2023-01-17T04:04:36.280Z,97643.00
2023-01-17T04:07:02.655Z,97641.19
2023-01-17T04:09:33.888Z,97642.66
2023-01-17T04:12:00.922Z,97651.47
2023-01-17T04:14:27.304Z,97652.28
2023-01-17T04:16:54.100Z,97651.00
2023-01-17T04:19:20.871Z,97651.44
2023-01-17T04:21:47.256Z,97653.78
2023-01-17T04:24:13.638Z,97665.84
2023-01-17T04:26:40.040Z,97664.19
2023-01-17T04:29:06.439Z,97663.41
2023-01-17T04:31:32.886Z,97663.56
2023-01-17T04:33:59.302Z,97664.69
2023-01-17T04:36:25.675Z,97671.22
2023-01-17T04:38:52.066Z,97677.06
2023-01-17T04:41:18.457Z,97681.16
2023-01-17T04:43:44.865Z,97674.31
2023-01-17T04:46:11.345Z,97668.75
2023-01-17T04:48:37.928Z,97677.25
2023-01-17T04:51:05.276Z,97680.53
2023-01-17T04:53:32.203Z,97680.22
2023-01-17T04:55:58.669Z,97680.19
2023-01-17T04:58:25.107Z,97689.81
2023-01-17T05:00:51.773Z,97693.41
2023-01-17T05:03:19.609Z,97695.19
2023-01-17T05:05:46.589Z,97699.28
2023-01-17T05:08:13.048Z,97699.78
2023-01-17T05:10:39.507Z,97704.00
2023-01-17T05:13:05.901Z,97708.09
2023-01-17T05:15:32.609Z,97711.00
2023-01-17T05:17:58.997Z,97708.91
2023-01-17T05:20:26.604Z,97718.69
2023-01-17T05:22:56.890Z,97724.06
2023-01-17T05:25:25.343Z,97722.75
2023-01-17T05:27:52.387Z,97725.38
2023-01-17T05:30:19.301Z,97727.81
2023-01-17T05:32:50.466Z,97753.75
2023-01-17T05:35:22.124Z,97746.09
2023-01-17T05:37:49.979Z,97743.50
2023-01-17T05:40:18.545Z,97740.06
2023-01-17T05:42:49.203Z,97752.78
2023-01-17T05:45:17.069Z,97757.81
2023-01-17T05:47:44.654Z,97765.03
2023-01-17T05:50:18.514Z,97770.22
2023-01-17T05:52:53.072Z,97768.75
2023-01-17T05:55:20.304Z,97771.22
2023-01-17T05:57:47.067Z,97771.88
2023-01-17T06:00:14.515Z,97774.50
2023-01-17T06:02:41.423Z,97787.50
2023-01-17T06:05:08.089Z,97786.06
2023-01-17T06:07:34.578Z,97796.63
2023-01-17T06:10:01.203Z,97801.56
2023-01-17T06:12:27.652Z,97797.78
2023-01-17T06:14:54.050Z,97804.50
2023-01-17T06:17:20.497Z,97813.13
2023-01-17T06:19:46.889Z,97818.50
2023-01-17T06:22:13.302Z,97817.69
2023-01-17T06:24:39.679Z,97832.53
2023-01-17T06:27:09.424Z,97825.34
2023-01-17T06:29:35.863Z,97830.09
2023-01-17T06:32:03.649Z,97836.25
2023-01-17T06:34:30.056Z,97836.59
2023-01-17T06:36:56.814Z,97829.25
2023-01-17T06:39:23.199Z,97833.69
2023-01-17T06:41:49.576Z,97833.47
2023-01-17T06:44:15.968Z,97834.34
2023-01-17T06:46:43.301Z,97836.09
2023-01-17T06:49:09.766Z,97844.41
2023-01-17T06:51:36.178Z,97846.69
2023-01-17T06:54:02.590Z,97843.28
2023-01-17T06:56:31.732Z,97852.28
2023-01-17T06:58:58.155Z,97859.28
2023-01-17T07:01:24.985Z,97859.88
2023-01-17T07:03:52.441Z,97857.78
2023-01-17T07:06:18.952Z,97859.84
2023-01-17T07:08:45.573Z,97866.06
2023-01-17T07:11:11.967Z,97864.75
2023-01-17T07:13:38.881Z,97867.72
2023-01-17T07:16:06.408Z,97867.53
2023-01-17T07:18:33.893Z,97869.81
2023-01-17T07:21:00.595Z,97874.88
2023-01-17T07:23:27.187Z,97876.03
2023-01-17T07:25:59.392Z,97874.88
2023-01-17T07:28:27.284Z,97883.03
2023-01-17T07:30:54.387Z,97882.06
2023-01-17T07:33:21.095Z,97884.16
2023-01-17T07:35:47.518Z,97883.50
2023-01-17T07:38:16.386Z,97888.59
2023-01-17T07:40:42.874Z,97889.03
2023-01-17T07:43:15.340Z,97889.56
2023-01-17T07:45:46.268Z,97890.84
2023-01-17T07:48:12.903Z,97903.09
2023-01-17T07:50:39.656Z,97901.44
2023-01-17T07:53:06.037Z,97903.22
2023-01-17T07:55:32.975Z,97901.63
2023-01-17T07:58:00.762Z,97906.19
2023-01-17T08:00:28.964Z,97904.56
2023-01-17T08:02:57.261Z,97898.50
2023-01-17T08:05:23.988Z,97896.91
2023-01-17T08:07:50.418Z,97900.63
2023-01-17T08:10:18.037Z,97890.66
2023-01-17T08:12:48.579Z,97911.66
2023-01-17T08:15:16.488Z,97909.88
2023-01-17T08:17:49.903Z,97923.59
2023-01-17T08:20:16.620Z,97928.34
2023-01-17T08:22:43.010Z,97927.97
2023-01-17T08:25:09.804Z,97927.66
2023-01-17T08:27:36.410Z,97931.56
2023-01-17T08:30:03.594Z,97926.88
2023-01-17T08:32:29.982Z,97926.06
2023-01-17T08:34:57.143Z,97935.16
2023-01-17T08:37:23.712Z,97939.41
2023-01-17T08:39:50.264Z,97945.50
2023-01-17T08:42:16.701Z,97949.25
2023-01-17T08:44:43.614Z,97962.59
2023-01-17T08:47:10.439Z,97962.78
2023-01-17T08:49:36.838Z,97970.91
2023-01-17T08:52:03.550Z,97971.09
2023-01-17T08:54:29.941Z,97972.41
2023-01-17T08:56:56.362Z,97968.19
2023-01-17T08:59:22.791Z,97981.69
2023-01-17T09:01:49.299Z,97979.13
2023-01-17T09:04:15.970Z,97989.38
2023-01-17T09:06:45.288Z,97984.16
2023-01-17T09:09:11.685Z,97995.28
2023-01-17T09:11:38.257Z,97993.78
2023-01-17T09:14:04.803Z,98000.19
2023-01-17T09:16:31.456Z,97995.66
2023-01-17T09:18:59.317Z,98003.47
2023-01-17T09:21:26.761Z,98020.44
2023-01-17T09:23:53.427Z,98022.88
2023-01-17T09:26:25.428Z,98023.03
2023-01-17T09:28:52.347Z,98036.44
2023-01-17T09:31:22.992Z,98040.72
2023-01-17T09:33:51.247Z,98051.97
2023-01-17T09:36:18.018Z,98051.81
2023-01-17T09:38:44.624Z,98055.34
2023-01-17T09:41:22.031Z,98057.22
2023-01-17T09:43:55.156Z,98071.72
2023-01-17T09:46:26.564Z,98073.69
2023-01-17T09:49:03.536Z,98075.47
2023-01-17T09:51:30.114Z,98071.88
2023-01-17T09:53:56.536Z,98082.63
2023-01-17T09:56:31.089Z,98079.34
2023-01-17T09:59:20.795Z,98089.03
2023-01-17T10:01:52.382Z,98087.38
2023-01-17T10:04:37.892Z,98093.03
2023-01-17T10:07:17.891Z,98102.09
2023-01-17T10:10:04.835Z,98115.09
2023-01-17T10:12:53.598Z,98114.56
2023-01-17T10:16:01.580Z,98117.84
2023-01-17T10:19:05.705Z,98125.97
2023-01-17T10:21:55.622Z,98127.94
2023-01-17T10:24:31.152Z,98140.34
2023-01-17T10:27:01.457Z,98140.22
2023-01-17T10:29:34.320Z,98134.44
2023-01-17T10:32:02.697Z,98148.41
2023-01-17T10:34:40.126Z,98149.59
2023-01-17T10:37:34.788Z,98143.41
2023-01-17T10:40:15.698Z,98156.66
2023-01-17T10:42:55.852Z,98149.41
2023-01-17T10:45:28.935Z,98152.78
2023-01-17T10:48:09.121Z,98157.16
2023-01-17T10:50:46.832Z,98160.88
2023-01-17T10:53:34.088Z,98167.66
2023-01-17T10:56:01.980Z,98166.72
2023-01-17T10:58:28.407Z,98173.03
2023-01-17T11:01:19.408Z,98187.25
2023-01-17T11:03:50.980Z,98179.75
2023-01-17T11:06:20.918Z,98188.69
2023-01-17T11:08:58.564Z,98193.81
2023-01-17T11:11:31.957Z,98192.78
2023-01-17T11:14:18.613Z,98196.16
2023-01-17T11:16:45.163Z,98210.28
2023-01-17T11:19:26.671Z,98204.78
2023-01-17T11:22:02.425Z,98213.31
2023-01-17T11:24:36.442Z,98211.50
2023-01-17T11:27:05.672Z,98211.44
2023-01-17T11:29:35.994Z,98210.88
2023-01-17T11:32:26.511Z,98203.00
2023-01-17T11:35:25.595Z,98210.00
2023-01-17T11:37:56.505Z,98208.56
2023-01-17T11:40:28.516Z,98214.53
2023-01-17T11:43:11.372Z,98220.78
2023-01-17T11:45:39.582Z,98216.97
2023-01-17T11:48:09.052Z,98219.16
2023-01-17T11:50:39.791Z,98226.31
2023-01-17T11:53:16.258Z,98233.91
2023-01-17T11:56:05.752Z,98229.38
2023-01-17T11:58:38.369Z,98234.00
2023-01-17T12:01:32.762Z,98221.41
2023-01-17T12:04:24.104Z,98228.97
2023-01-17T12:07:20.371Z,98224.25
2023-01-17T12:10:03.582Z,98225.25
2023-01-17T12:13:14.514Z,98223.34
2023-01-17T12:16:01.687Z,98215.41
2023-01-17T12:19:16.596Z,98214.03
2023-01-17T12:22:12.624Z,98212.59
2023-01-17T12:25:06.927Z,98226.94
2023-01-17T12:27:47.678Z,98233.91
2023-01-17T12:30:42.927Z,98234.78
2023-01-17T12:33:19.926Z,98226.91
2023-01-17T12:35:56.991Z,98244.53
2023-01-17T12:38:32.978Z,98249.69
2023-01-17T12:41:23.351Z,98250.91
2023-01-17T12:43:54.040Z,98252.94
2023-01-17T12:46:27.165Z,98256.75
2023-01-17T12:48:58.169Z,98265.69
2023-01-17T12:51:33.137Z,98272.72
2023-01-17T12:54:08.633Z,98272.81
2023-01-17T12:56:48.573Z,98269.34
2023-01-17T12:59:22.209Z,98271.13
2023-01-17T13:01:58.956Z,98274.88
2023-01-17T13:04:32.963Z,98275.56
2023-01-17T13:06:59.461Z,98274.03
2023-01-17T13:09:33.637Z,98275.78
2023-01-17T13:12:18.655Z,98273.56
2023-01-17T13:14:48.643Z,98280.94
2023-01-17T13:17:38.816Z,98283.88
2023-01-17T13:20:33.279Z,98296.31
2023-01-17T13:23:53.953Z,98294.97
2023-01-17T13:26:50.953Z,98304.00
2023-01-17T13:29:29.428Z,98307.31
2023-01-17T13:32:23.122Z,98299.50
2023-01-17T13:35:02.022Z,98305.97
2023-01-17T13:37:47.791Z,98318.91
2023-01-17T13:40:29.553Z,98318.81
2023-01-17T13:43:05.187Z,98318.28
2023-01-17T13:45:36.618Z,98313.00
2023-01-17T13:48:12.218Z,98322.78
2023-01-17T13:50:38.533Z,98330.88
2023-01-17T13:53:35.669Z,98330.88
2023-01-17T13:56:18.821Z,98339.78
2023-01-17T13:58:47.030Z,98336.56
2023-01-17T14:01:13.559Z,98341.25
2023-01-17T14:03:48.982Z,98342.78
2023-01-17T14:06:44.518Z,98349.66
2023-01-17T14:09:22.907Z,98350.50
2023-01-17T14:11:52.622Z,98351.81
2023-01-17T14:14:43.680Z,98359.03
2023-01-17T14:17:16.296Z,98362.53
2023-01-17T14:19:48.090Z,98377.13
2023-01-17T14:22:24.401Z,98375.66
2023-01-17T14:25:10.875Z,98389.63
2023-01-17T14:27:49.835Z,98385.72
2023-01-17T14:30:24.877Z,98388.91
2023-01-17T14:33:03.148Z,98396.81
2023-01-17T14:35:31.597Z,98403.06
2023-01-17T14:37:59.743Z,98407.28
2023-01-17T14:40:30.500Z,98401.63
2023-01-17T14:43:02.584Z,98409.13
2023-01-17T14:45:31.791Z,98412.19
2023-01-17T14:48:00.842Z,98413.97
2023-01-17T14:50:39.238Z,98419.69
2023-01-17T14:53:11.479Z,98422.47
2023-01-17T14:55:52.421Z,98429.25
2023-01-17T14:58:21.823Z,98417.53
2023-01-17T15:00:51.446Z,98422.88
2023-01-17T15:03:18.012Z,98424.75
2023-01-17T15:05:51.254Z,98427.72
2023-01-17T15:08:22.069Z,98425.22
2023-01-17T15:10:56.173Z,98424.00
2023-01-17T15:13:44.376Z,98432.81
2023-01-17T15:16:26.171Z,98438.59
2023-01-17T15:18:53.402Z,98441.53
2023-01-17T15:21:22.551Z,98455.16
2023-01-17T15:23:55.313Z,98449.34
2023-01-17T15:26:25.078Z,98457.94
2023-01-17T15:28:53.296Z,98449.84
2023-01-17T15:31:37.700Z,98453.66
2023-01-17T15:34:08.069Z,98451.19
2023-01-17T15:36:35.201Z,98447.91
2023-01-17T15:39:19.089Z,98457.53
2023-01-17T15:41:47.201Z,98456.38
2023-01-17T15:44:48.940Z,98458.97
2023-01-17T15:47:38.455Z,98461.00
2023-01-17T15:50:20.315Z,98461.47
2023-01-17T15:52:51.325Z,98464.88
2023-01-17T15:55:29.381Z,98468.75
2023-01-17T15:57:55.789Z,98464.88
2023-01-17T16:00:32.314Z,98479.28
2023-01-17T16:02:59.401Z,98481.63
2023-01-17T16:05:27.556Z,98475.56
2023-01-17T16:07:56.765Z,98475.97
2023-01-17T16:10:29.024Z,98480.84
2023-01-17T16:12:56.168Z,98482.94
2023-01-17T16:15:23.592Z,98485.38
2023-01-17T16:17:53.489Z,98494.59
2023-01-17T16:20:24.860Z,98491.97
2023-01-17T16:22:51.647Z,98499.00
2023-01-17T16:25:20.856Z,98496.53
2023-01-17T16:27:48.558Z,98494.28
2023-01-17T16:30:18.183Z,98491.41
2023-01-17T16:32:48.897Z,98495.63
2023-01-17T16:35:23.656Z,98487.69
2023-01-17T16:37:55.161Z,98488.88
2023-01-17T16:40:24.231Z,98492.28
2023-01-17T16:42:50.797Z,98501.72
2023-01-17T16:45:18.654Z,98506.94
2023-01-17T16:47:46.761Z,98513.13
2023-01-17T16:50:15.664Z,98507.19
2023-01-17T16:52:42.235Z,98506.44
2023-01-17T16:55:14.064Z,98500.38
2023-01-17T16:57:40.451Z,98500.66
2023-01-17T17:00:08.203Z,98502.19
2023-01-17T17:02:34.899Z,98503.59
2023-01-17T17:05:01.334Z,98512.75
2023-01-17T17:07:27.728Z,98511.63
2023-01-17T17:09:54.174Z,98520.56
2023-01-17T17:12:20.554Z,98510.44
2023-01-17T17:14:46.969Z,98515.72
2023-01-17T17:17:13.396Z,98512.41
2023-01-17T17:19:39.813Z,98517.81
2023-01-17T17:22:06.577Z,98532.41
2023-01-17T17:24:33.512Z,98535.31
2023-01-17T17:27:00.104Z,98535.69
2023-01-17T17:29:26.504Z,98537.34
2023-01-17T17:31:53.760Z,98545.16
2023-01-17T17:34:20.763Z,98550.16
2023-01-17T17:36:47.169Z,98549.94
2023-01-17T17:39:17.373Z,98549.97
2023-01-17T17:41:45.643Z,98544.72
2023-01-17T17:44:12.425Z,98551.63
2023-01-17T17:46:38.924Z,98561.03
2023-01-17T17:49:06.653Z,98553.31
2023-01-17T17:51:35.633Z,98547.22
2023-01-17T17:54:05.261Z,98549.38
2023-01-17T17:56:32.792Z,98548.34
2023-01-17T17:59:00.961Z,98562.41
2023-01-17T18:01:27.975Z,98559.91
2023-01-17T18:03:57.168Z,98559.41
2023-01-17T18:06:24.260Z,98561.06
2023-01-17T18:08:52.121Z,98558.34
2023-01-17T18:11:21.774Z,98558.38
2023-01-17T18:13:50.498Z,98562.25
2023-01-17T18:16:23.124Z,98560.09
2023-01-17T18:18:52.536Z,98557.38
2023-01-17T18:21:26.968Z,98563.47
2023-01-17T18:23:58.775Z,98564.47
2023-01-17T18:26:37.869Z,98564.75
2023-01-17T18:29:06.329Z,98576.66
2023-01-17T18:31:33.822Z,98575.31
2023-01-17T18:34:05.140Z,98568.50
2023-01-17T18:36:31.546Z,98567.97
2023-01-17T18:38:57.954Z,98580.72
2023-01-17T18:41:30.776Z,98576.34
2023-01-17T18:43:57.881Z,98566.97
2023-01-17T18:46:25.979Z,98576.63
2023-01-17T18:48:55.458Z,98574.97
2023-01-17T18:51:21.999Z,98582.38
2023-01-17T18:53:48.457Z,98579.63
2023-01-17T18:56:18.241Z,98588.97
2023-01-17T18:58:46.645Z,98589.00
2023-01-17T19:01:14.375Z,98585.13
2023-01-17T19:03:43.525Z,98585.72
2023-01-17T19:06:12.701Z,98585.75
2023-01-17T19:08:40.060Z,98581.34
2023-01-17T19:11:06.888Z,98584.38
2023-01-17T19:13:36.099Z,98592.91
2023-01-17T19:16:08.205Z,98593.22
2023-01-17T19:18:35.005Z,98595.41
2023-01-17T19:21:12.747Z,98597.63
2023-01-17T19:23:39.668Z,98597.69
2023-01-17T19:26:08.341Z,98592.44
2023-01-17T19:28:42.232Z,98592.16
2023-01-17T19:31:16.512Z,98591.88
2023-01-17T19:33:45.125Z,98602.06
2023-01-17T19:36:16.981Z,98599.03
2023-01-17T19:38:52.298Z,98610.88
2023-01-17T19:41:27.216Z,98612.84
2023-01-17T19:43:58.215Z,98605.97
2023-01-17T19:46:27.213Z,98612.28
2023-01-17T19:48:55.323Z,98623.59
2023-01-17T19:51:22.195Z,98617.81
2023-01-17T19:53:48.609Z,98623.88
2023-01-17T19:56:20.471Z,98616.44
2023-01-17T19:58:47.706Z,98617.56
2023-01-17T20:01:26.560Z,98620.56
2023-01-17T20:03:53.039Z,98625.00
2023-01-17T20:06:22.569Z,98620.81
2023-01-17T20:08:49.268Z,98621.13
2023-01-17T20:11:19.547Z,98621.38
2023-01-17T20:13:47.217Z,98621.94
2023-01-17T20:16:15.423Z,98620.00
2023-01-17T20:18:42.636Z,98626.34
2023-01-17T20:21:21.109Z,98626.63
2023-01-17T20:23:48.798Z,98629.91
2023-01-17T20:26:17.837Z,98626.88
2023-01-17T20:28:48.826Z,98621.66
2023-01-17T20:31:17.742Z,98625.25
2023-01-17T20:33:45.547Z,98626.03
2023-01-17T20:36:14.820Z,98621.09
2023-01-17T20:38:45.078Z,98628.00
2023-01-17T20:41:23.299Z,98621.66
2023-01-17T20:43:52.789Z,98631.28
2023-01-17T20:46:21.597Z,98647.25
2023-01-17T20:48:50.675Z,98644.75
2023-01-17T20:51:18.388Z,98653.00
2023-01-17T20:53:46.035Z,98656.28
2023-01-17T20:56:14.949Z,98650.78
2023-01-17T20:58:42.309Z,98652.72
2023-01-17T21:01:10.883Z,98666.47
2023-01-17T21:03:38.523Z,98665.91
2023-01-17T21:06:06.172Z,98679.09
2023-01-17T21:08:34.918Z,98684.63
2023-01-17T21:11:01.407Z,98695.91
2023-01-17T21:13:27.944Z,98703.53
2023-01-17T21:15:55.115Z,98706.31
2023-01-17T21:18:23.968Z,98715.09
2023-01-17T21:20:50.579Z,98712.09
2023-01-17T21:23:17.963Z,98722.03
2023-01-17T21:25:55.670Z,98731.38
2023-01-17T21:28:27.309Z,98731.06
2023-01-17T21:30:54.609Z,98727.47
2023-01-17T21:33:22.703Z,98737.06
2023-01-17T21:35:49.122Z,98740.69
2023-01-17T21:38:16.185Z,98745.91
2023-01-17T21:40:43.644Z,98743.63
2023-01-17T21:43:11.166Z,98742.00
2023-01-17T21:45:38.643Z,98746.34
2023-01-17T21:48:06.666Z,98755.13
2023-01-17T21:50:34.092Z,98755.63
2023-01-17T21:53:00.839Z,98754.56
2023-01-17T21:55:45.618Z,98756.50
2023-01-17T21:58:32.787Z,98752.69
2023-01-17T22:01:08.905Z,98754.56
2023-01-17T22:03:35.865Z,98762.28
2023-01-17T22:06:02.493Z,98762.56
2023-01-17T22:08:37.774Z,98764.22
2023-01-17T22:11:10.727Z,98760.84
2023-01-17T22:13:38.222Z,98766.06
2023-01-17T22:16:07.239Z,98764.72
2023-01-17T22:18:36.998Z,98770.69
2023-01-17T22:21:06.448Z,98766.88
2023-01-17T22:23:33.665Z,98773.69
2023-01-17T22:26:05.413Z,98783.06
2023-01-17T22:28:32.930Z,98776.16
2023-01-17T22:31:21.259Z,98779.13
2023-01-17T22:33:53.097Z,98778.88
2023-01-17T22:36:20.175Z,98777.38
2023-01-17T22:38:47.231Z,98762.34
2023-01-17T22:41:16.497Z,98767.00
2023-01-17T22:43:45.284Z,98769.00
2023-01-17T22:46:14.037Z,98766.53
2023-01-17T22:48:40.475Z,98763.22
2023-01-17T22:51:09.694Z,98761.84
2023-01-17T22:53:44.158Z,98751.94
2023-01-17T22:56:13.582Z,98755.50
2023-01-17T22:58:44.478Z,98760.63
2023-01-17T23:01:31.260Z,98757.06
2023-01-17T23:03:59.421Z,98752.66
2023-01-17T23:06:28.669Z,98748.22
2023-01-17T23:08:58.227Z,98746.88
2023-01-17T23:11:46.147Z,98743.81
2023-01-17T23:14:23.570Z,98755.53
2023-01-17T23:17:17.288Z,98742.38
2023-01-17T23:19:49.371Z,98744.34
2023-01-17T23:22:19.309Z,98741.63
2023-01-17T23:24:54.838Z,98737.41
2023-01-17T23:27:45.411Z,98735.72
2023-01-17T23:30:14.773Z,98742.50
2023-01-17T23:32:47.171Z,98728.81
2023-01-17T23:35:14.568Z,98728.34
2023-01-17T23:37:59.348Z,98724.69
2023-01-17T23:40:25.802Z,98720.53
2023-01-17T23:43:11.086Z,98723.81
2023-01-17T23:45:38.935Z,98712.84
2023-01-17T23:48:09.139Z,98716.63
2023-01-17T23:50:37.202Z,98716.50
2023-01-17T23:53:09.264Z,98706.19
2023-01-17T23:55:40.781Z,98706.19
2023-01-17T23:58:09.656Z,98700.22
